No1 Tokuyama — JK5318 — position and weather

sailwx.info

Track history (hours):
 
Tides and Currents Weather Stations Pressure Air Temp Water Temp Dewpoint Dewpoint Depression Visibility Wind Speed Wind Dir Waves Ship Positions

No1 Tokuyama

Last reported at 2016-Jul-21 12:31 UTC. Time now 2016-Jul-27 19:16 UTC.
Position N 34°34' E 134°51'.

Length 110 m; draft 5.4 m.

Type: Cargo ship. MMSI: 431400487.

Date/timePositionNaut miles runAvg speedWind from/ knotsBaromVisibWave heightAir tempDewpointWater temp
2016-Jul-21 12:31N 34°34' E 134°51'1515.6
2016-Jul-21 11:33N 34°36' E 135°09'1313.3
2016-Jul-21 10:33N 34°39' E 135°24'2 1.8
2016-Jul-21 09:32N 34°39' E 135°27'0 0.0
2016-Jul-21 08:20N 34°39' E 135°27'0 0.0
2016-Jul-21 07:32N 34°39' E 135°27'0 0.0
2016-Jul-21 06:32N 34°39' E 135°27'0 0.0
2016-Jul-21 04:32N 34°39' E 135°27'0 0.0
2016-Jul-21 03:32N 34°39' E 135°27'0 0.5
2016-Jul-21 02:33N 34°39' E 135°26'1111.3
2016-Jul-21 01:33N 34°35' E 135°13'1211.2
2016-Jul-21 00:29N 34°37' E 134°59'15 0.3
2016-Jul-19 04:17N 34°32' E 134°41'913.0
2016-Jul-19 03:33N 34°35' E 134°52'1110.8
2016-Jul-19 02:33N 34°36' E 135°05'1413.8
2016-Jul-19 01:33N 34°37' E 135°22'4 4.0
2016-Jul-19 00:33N 34°39' E 135°27'0 0.0
2016-Jul-18 23:33N 34°39' E 135°27'0 0.0
2016-Jul-18 22:15N 34°39' E 135°27'0 0.0
2016-Jul-18 21:27N 34°39' E 135°27'0 0.0
2016-Jul-18 20:21N 34°39' E 135°27'0 0.0
2016-Jul-18 19:33N 34°39' E 135°27'0 0.0
2016-Jul-18 18:33N 34°39' E 135°27'0 0.0
2016-Jul-18 17:33N 34°39' E 135°27'0 0.0
2016-Jul-18 16:33N 34°39' E 135°27'0 0.0
2016-Jul-18 15:33N 34°39' E 135°27'0 0.0
2016-Jul-18 14:33N 34°39' E 135°27'0 0.0
2016-Jul-18 13:33N 34°39' E 135°27'0 0.0
2016-Jul-18 12:27N 34°39' E 135°27'0 0.0
2016-Jul-18 11:27N 34°39' E 135°27'0 0.0
2016-Jul-18 10:33N 34°39' E 135°27'0 0.0
2016-Jul-18 09:33N 34°39' E 135°27'0 0.3
2016-Jul-18 08:33N 34°39' E 135°26'1211.8
2016-Jul-18 07:33N 34°31' E 135°15'1413.7
2016-Jul-18 06:33N 34°21' E 135°04'1211.6
2016-Jul-18 05:33N 34°10' E 134°60'17910.9
2016-Jul-17 13:04N 34°32' E 138°35'5812.7
2016-Jul-17 08:32N 35°03' E 139°34'1313.0
2016-Jul-17 07:33N 35°12' E 139°46'1212.1
2016-Jul-17 06:33N 35°24' E 139°43'6 3.2
2016-Jul-17 04:32N 35°30' E 139°44'0 0.0
2016-Jul-17 03:33N 35°30' E 139°44'0 0.0
2016-Jul-17 02:33N 35°30' E 139°44'0 0.0
2016-Jul-17 01:33N 35°30' E 139°44'0 0.0
2016-Jul-17 00:33N 35°30' E 139°44'0 0.0
2016-Jul-16 23:32N 35°30' E 139°44'0 0.1
2016-Jul-16 22:33N 35°30' E 139°44'7 6.7
2016-Jul-16 21:33N 35°24' E 139°48'2 2.1
2016-Jul-16 20:33N 35°22' E 139°49'0 0.0
2016-Jul-16 19:33N 35°22' E 139°49'0 0.1
2016-Jul-16 18:30N 35°22' E 139°49'0 0.0
2016-Jul-16 17:30N 35°22' E 139°49'0 0.1
2016-Jul-16 16:33N 35°22' E 139°49'0 0.0
2016-Jul-16 15:33N 35°22' E 139°49'0 0.3
2016-Jul-16 14:33N 35°22' E 139°49'1 0.7
2016-Jul-16 13:22N 35°22' E 139°51'0 0.0
2016-Jul-16 12:25N 35°22' E 139°51'0 0.0
2016-Jul-16 11:31N 35°22' E 139°51'0 0.0
2016-Jul-16 10:31N 35°22' E 139°51'0 0.0
2016-Jul-16 09:31N 35°22' E 139°51'0 0.0
2016-Jul-16 08:28N 35°22' E 139°51'0 0.0
2016-Jul-16 07:31N 35°22' E 139°51'0 0.0
2016-Jul-16 06:28N 35°22' E 139°51'0 0.0
2016-Jul-16 04:31N 35°22' E 139°51'0 0.0
2016-Jul-16 03:31N 35°22' E 139°51'0 0.0
2016-Jul-16 02:28N 35°22' E 139°51'0 0.0
2016-Jul-16 01:31N 35°22' E 139°51'0 0.0
2016-Jul-16 00:31N 35°22' E 139°51'0 0.0
2016-Jul-15 23:28N 35°22' E 139°51'0 0.2
2016-Jul-15 22:33N 35°22' E 139°50'10 9.5
2016-Jul-15 21:33N 35°30' E 139°45'1 0.7
2016-Jul-15 20:33N 35°30' E 139°44'0 0.0
2016-Jul-15 19:33N 35°30' E 139°44'0 0.0
2016-Jul-15 18:33N 35°30' E 139°44'0 0.0
2016-Jul-15 17:33N 35°30' E 139°44'0 0.0
2016-Jul-15 16:33N 35°30' E 139°44'0 0.0
2016-Jul-15 15:33N 35°30' E 139°44'0 0.0
2016-Jul-15 14:33N 35°30' E 139°44'0 0.0
2016-Jul-15 13:33N 35°30' E 139°44'0 0.0
2016-Jul-15 12:33N 35°30' E 139°44'0 0.0
2016-Jul-15 11:33N 35°30' E 139°44'0 0.0
2016-Jul-15 10:33N 35°30' E 139°44'0 0.0
2016-Jul-15 09:33N 35°30' E 139°44'0 0.0
2016-Jul-15 08:33N 35°30' E 139°44'0 0.0
2016-Jul-15 07:33N 35°30' E 139°44'0 0.0
2016-Jul-15 06:33N 35°30' E 139°44'0 0.1
2016-Jul-15 05:33N 35°30' E 139°44'5 4.8
2016-Jul-15 04:33N 35°25' E 139°42'0 0.5
2016-Jul-15 03:33N 35°26' E 139°41'0 0.0
2016-Jul-15 02:33N 35°26' E 139°41'0 0.0
2016-Jul-15 01:33N 35°26' E 139°41'4 4.4
2016-Jul-15 00:33N 35°22' E 139°43'1211.6
2016-Jul-14 23:33N 35°10' E 139°47'1211.9
2016-Jul-14 22:33N 35°01' E 139°37'6312.2
2016-Jul-14 17:24N 34°28' E 138°32'  
2016-Jul-12 04:29N 34°05' E 134°48'  
Track history (hours):
 
Tides and Currents Weather Stations Pressure Air Temp Water Temp Dewpoint Dewpoint Depression Visibility Wind Speed Wind Dir Waves Ship Positions

No1 Tokuyama

Last reported at 2016-Jul-21 12:31 UTC. Time now 2016-Jul-27 19:16 UTC.
Position N 34°34' E 134°51'.

Length 110 m; draft 5.4 m.

Type: Cargo ship. MMSI: 431400487.

Date/timePositionNaut miles runAvg speedWind from/ knotsBaromVisibWave heightAir tempDewpointWater temp
2016-Jul-21 12:31N 34°34' E 134°51'1515.6
2016-Jul-21 11:33N 34°36' E 135°09'1313.3
2016-Jul-21 10:33N 34°39' E 135°24'2 1.8
2016-Jul-21 09:32N 34°39' E 135°27'0 0.0
2016-Jul-21 08:20N 34°39' E 135°27'0 0.0
2016-Jul-21 07:32N 34°39' E 135°27'0 0.0
2016-Jul-21 06:32N 34°39' E 135°27'0 0.0
2016-Jul-21 04:32N 34°39' E 135°27'0 0.0
2016-Jul-21 03:32N 34°39' E 135°27'0 0.5
2016-Jul-21 02:33N 34°39' E 135°26'1111.3
2016-Jul-21 01:33N 34°35' E 135°13'1211.2
2016-Jul-21 00:29N 34°37' E 134°59'15 0.3
2016-Jul-19 04:17N 34°32' E 134°41'913.0
2016-Jul-19 03:33N 34°35' E 134°52'1110.8
2016-Jul-19 02:33N 34°36' E 135°05'1413.8
2016-Jul-19 01:33N 34°37' E 135°22'4 4.0
2016-Jul-19 00:33N 34°39' E 135°27'0 0.0
2016-Jul-18 23:33N 34°39' E 135°27'0 0.0
2016-Jul-18 22:15N 34°39' E 135°27'0 0.0
2016-Jul-18 21:27N 34°39' E 135°27'0 0.0
2016-Jul-18 20:21N 34°39' E 135°27'0 0.0
2016-Jul-18 19:33N 34°39' E 135°27'0 0.0
2016-Jul-18 18:33N 34°39' E 135°27'0 0.0
2016-Jul-18 17:33N 34°39' E 135°27'0 0.0
2016-Jul-18 16:33N 34°39' E 135°27'0 0.0
2016-Jul-18 15:33N 34°39' E 135°27'0 0.0
2016-Jul-18 14:33N 34°39' E 135°27'0 0.0
2016-Jul-18 13:33N 34°39' E 135°27'0 0.0
2016-Jul-18 12:27N 34°39' E 135°27'0 0.0
2016-Jul-18 11:27N 34°39' E 135°27'0 0.0
2016-Jul-18 10:33N 34°39' E 135°27'0 0.0
2016-Jul-18 09:33N 34°39' E 135°27'0 0.3
2016-Jul-18 08:33N 34°39' E 135°26'1211.8
2016-Jul-18 07:33N 34°31' E 135°15'1413.7
2016-Jul-18 06:33N 34°21' E 135°04'1211.6
2016-Jul-18 05:33N 34°10' E 134°60'17910.9
2016-Jul-17 13:04N 34°32' E 138°35'5812.7
2016-Jul-17 08:32N 35°03' E 139°34'1313.0
2016-Jul-17 07:33N 35°12' E 139°46'1212.1
2016-Jul-17 06:33N 35°24' E 139°43'6 3.2
2016-Jul-17 04:32N 35°30' E 139°44'0 0.0
2016-Jul-17 03:33N 35°30' E 139°44'0 0.0
2016-Jul-17 02:33N 35°30' E 139°44'0 0.0
2016-Jul-17 01:33N 35°30' E 139°44'0 0.0
2016-Jul-17 00:33N 35°30' E 139°44'0 0.0
2016-Jul-16 23:32N 35°30' E 139°44'0 0.1
2016-Jul-16 22:33N 35°30' E 139°44'7 6.7
2016-Jul-16 21:33N 35°24' E 139°48'2 2.1
2016-Jul-16 20:33N 35°22' E 139°49'0 0.0
2016-Jul-16 19:33N 35°22' E 139°49'0 0.1
2016-Jul-16 18:30N 35°22' E 139°49'0 0.0
2016-Jul-16 17:30N 35°22' E 139°49'0 0.1
2016-Jul-16 16:33N 35°22' E 139°49'0 0.0
2016-Jul-16 15:33N 35°22' E 139°49'0 0.3
2016-Jul-16 14:33N 35°22' E 139°49'1 0.7
2016-Jul-16 13:22N 35°22' E 139°51'0 0.0
2016-Jul-16 12:25N 35°22' E 139°51'0 0.0
2016-Jul-16 11:31N 35°22' E 139°51'0 0.0
2016-Jul-16 10:31N 35°22' E 139°51'0 0.0
2016-Jul-16 09:31N 35°22' E 139°51'0 0.0
2016-Jul-16 08:28N 35°22' E 139°51'0 0.0
2016-Jul-16 07:31N 35°22' E 139°51'0 0.0
2016-Jul-16 06:28N 35°22' E 139°51'0 0.0
2016-Jul-16 04:31N 35°22' E 139°51'0 0.0
2016-Jul-16 03:31N 35°22' E 139°51'0 0.0
2016-Jul-16 02:28N 35°22' E 139°51'0 0.0
2016-Jul-16 01:31N 35°22' E 139°51'0 0.0
2016-Jul-16 00:31N 35°22' E 139°51'0 0.0
2016-Jul-15 23:28N 35°22' E 139°51'0 0.2
2016-Jul-15 22:33N 35°22' E 139°50'10 9.5
2016-Jul-15 21:33N 35°30' E 139°45'1 0.7
2016-Jul-15 20:33N 35°30' E 139°44'0 0.0
2016-Jul-15 19:33N 35°30' E 139°44'0 0.0
2016-Jul-15 18:33N 35°30' E 139°44'0 0.0
2016-Jul-15 17:33N 35°30' E 139°44'0 0.0
2016-Jul-15 16:33N 35°30' E 139°44'0 0.0
2016-Jul-15 15:33N 35°30' E 139°44'0 0.0
2016-Jul-15 14:33N 35°30' E 139°44'0 0.0
2016-Jul-15 13:33N 35°30' E 139°44'0 0.0
2016-Jul-15 12:33N 35°30' E 139°44'0 0.0
2016-Jul-15 11:33N 35°30' E 139°44'0 0.0
2016-Jul-15 10:33N 35°30' E 139°44'0 0.0
2016-Jul-15 09:33N 35°30' E 139°44'0 0.0
2016-Jul-15 08:33N 35°30' E 139°44'0 0.0
2016-Jul-15 07:33N 35°30' E 139°44'0 0.0
2016-Jul-15 06:33N 35°30' E 139°44'0 0.1
2016-Jul-15 05:33N 35°30' E 139°44'5 4.8
2016-Jul-15 04:33N 35°25' E 139°42'0 0.5
2016-Jul-15 03:33N 35°26' E 139°41'0 0.0
2016-Jul-15 02:33N 35°26' E 139°41'0 0.0
2016-Jul-15 01:33N 35°26' E 139°41'4 4.4
2016-Jul-15 00:33N 35°22' E 139°43'1211.6
2016-Jul-14 23:33N 35°10' E 139°47'1211.9
2016-Jul-14 22:33N 35°01' E 139°37'6312.2
2016-Jul-14 17:24N 34°28' E 138°32'  
2016-Jul-12 04:29N 34°05' E 134°48'  

Dump ship's entire track history